createdAt,value
2017-11-15T00:00:41.337Z,40.1
2017-11-15T00:10:56.030Z,40.3
2017-11-15T00:21:12.199Z,39.5
2017-11-15T00:31:27.962Z,39.4
2017-11-15T00:41:43.066Z,39.4
2017-11-15T00:51:58.046Z,38.8
2017-11-15T01:02:13.806Z,38.7
2017-11-15T01:12:28.432Z,38.5
2017-11-15T01:22:43.670Z,38.1
2017-11-15T01:32:58.078Z,37.3
2017-11-15T01:43:12.987Z,37.1
2017-11-15T01:53:28.543Z,37.3
2017-11-15T02:03:43.494Z,37.1
2017-11-15T02:13:58.820Z,36.8
2017-11-15T02:24:13.693Z,36.7
2017-11-15T02:34:28.798Z,36.7
2017-11-15T02:44:43.413Z,36.9
2017-11-15T02:54:59.007Z,36.8
2017-11-15T03:05:14.527Z,36.1
2017-11-15T03:15:30.311Z,36.2
2017-11-15T03:25:45.516Z,35.8
2017-11-15T03:36:01.301Z,35.4
2017-11-15T03:46:16.305Z,34.7
2017-11-15T03:56:30.789Z,34.4
2017-11-15T04:06:46.863Z,33.8
2017-11-15T04:17:02.280Z,33.4
2017-11-15T04:27:17.680Z,33.5
2017-11-15T04:37:33.472Z,33.2
2017-11-15T04:47:47.876Z,33
2017-11-15T04:58:03.621Z,32.9
2017-11-15T05:08:19.454Z,32.5
2017-11-15T05:18:34.540Z,32.3
2017-11-15T05:28:49.914Z,32
2017-11-15T05:39:05.281Z,31.9
2017-11-15T05:49:20.023Z,31.9
2017-11-15T05:59:35.349Z,32.3
2017-11-15T06:09:49.894Z,32.9
2017-11-15T06:20:04.583Z,32.8
2017-11-15T06:30:19.440Z,32.9
2017-11-15T06:40:33.676Z,32.8
2017-11-15T06:50:48.234Z,32.8
2017-11-15T07:01:03.469Z,32.8
2017-11-15T07:11:18.679Z,32.8
2017-11-15T07:21:33.849Z,32.9
2017-11-15T07:31:48.221Z,33.1
2017-11-15T07:42:02.956Z,33.2
2017-11-15T07:52:19.183Z,33.5
2017-11-15T08:02:34.841Z,33.8
2017-11-15T08:12:49.361Z,34.2
2017-11-15T08:23:04.674Z,35.1
2017-11-15T08:33:20.879Z,36.2
2017-11-15T08:43:35.722Z,37.3
2017-11-15T08:53:51.305Z,38
2017-11-15T09:04:06.357Z,39.5
2017-11-15T09:14:22.629Z,40.8
2017-11-15T09:24:37.515Z,42.4
2017-11-15T09:34:52.030Z,42.9
2017-11-15T09:45:06.429Z,45.4
2017-11-15T09:55:22.114Z,48.6
2017-11-15T10:05:38.316Z,51
2017-11-15T10:15:52.939Z,54.7
2017-11-15T10:26:08.675Z,57
2017-11-15T10:36:24.349Z,61.8
2017-11-15T10:46:40.581Z,64.3
2017-11-15T10:56:55.905Z,63.7
2017-11-15T11:07:10.432Z,64.9
2017-11-15T11:17:26.224Z,65.2
2017-11-15T11:27:42.047Z,68
2017-11-15T11:37:57.366Z,68.8
2017-11-15T11:48:13.256Z,71.7
2017-11-15T11:58:29.120Z,73.5
2017-11-15T12:08:44.388Z,73
2017-11-15T12:18:59.300Z,72.2
2017-11-15T12:29:15.062Z,73.7
2017-11-15T12:39:30.277Z,72.2
2017-11-15T12:49:46.322Z,70.3
2017-11-15T13:00:00.972Z,62.8
2017-11-15T13:10:16.089Z,58.6
2017-11-15T13:20:31.629Z,58
2017-11-15T13:30:47.188Z,54.3
2017-11-15T13:41:03.463Z,51.6
2017-11-15T13:51:18.344Z,48.2
2017-11-15T14:01:34.400Z,46.1
2017-11-15T14:11:49.447Z,43.9
2017-11-15T14:22:04.193Z,40.6
2017-11-15T14:32:19.069Z,37.8
2017-11-15T14:42:34.889Z,36.2
2017-11-15T14:52:50.461Z,35.1
2017-11-15T15:03:06.150Z,33.9
2017-11-15T15:13:21.573Z,33
2017-11-15T15:23:36.811Z,33
2017-11-15T15:33:51.284Z,32.4
2017-11-15T15:44:06.974Z,31.7
2017-11-15T15:54:22.754Z,31.8
2017-11-15T16:04:38.260Z,31.7
2017-11-15T16:14:54.233Z,31.2
2017-11-15T16:25:09.338Z,30.6
2017-11-15T16:35:24.167Z,30.3
2017-11-15T16:45:38.664Z,30.2
2017-11-15T16:55:53.603Z,30.1
2017-11-15T17:06:08.375Z,29.9
2017-11-15T17:16:23.026Z,29.6
2017-11-15T17:26:37.699Z,29.4
2017-11-15T17:36:53.765Z,29.3
2017-11-15T17:47:08.115Z,29.1
2017-11-15T17:57:23.702Z,29
2017-11-15T18:07:39.270Z,28.9
2017-11-15T18:17:54.501Z,28.7
2017-11-15T18:28:09.621Z,28.7
2017-11-15T18:38:25.826Z,28.5
2017-11-15T18:48:41.967Z,28.6
2017-11-15T18:58:56.717Z,28.5
2017-11-15T19:09:11.116Z,28.5
2017-11-15T19:19:25.869Z,28.5
2017-11-15T19:29:41.556Z,28.6
2017-11-15T19:39:57.905Z,28.8
2017-11-15T19:50:13.216Z,28.9
2017-11-15T20:00:29.267Z,28.8
2017-11-15T20:10:44.085Z,29.2
2017-11-15T20:20:59.492Z,29.3
2017-11-15T20:31:14.484Z,29.3
2017-11-15T20:41:29.469Z,29.9
2017-11-15T20:51:44.907Z,30.2
2017-11-15T21:02:00.705Z,30.5
2017-11-15T21:12:15.516Z,31
2017-11-15T21:22:30.769Z,31.3
2017-11-15T21:32:46.121Z,31.8
2017-11-15T21:43:01.620Z,32.2
2017-11-15T21:53:16.654Z,32.3
2017-11-15T22:03:31.998Z,31.9
2017-11-15T22:13:46.579Z,32
2017-11-15T22:24:02.369Z,32
2017-11-15T22:34:17.083Z,32.1
2017-11-15T22:44:32.863Z,31.6
2017-11-15T22:54:48.897Z,31.8
2017-11-15T23:05:03.302Z,31.8
2017-11-15T23:15:19.524Z,31.4
2017-11-15T23:25:35.817Z,30.9
2017-11-15T23:35:50.358Z,30.8
2017-11-15T23:46:04.907Z,31
2017-11-15T23:56:20.700Z,31
